Flight Track Log - Related Links

Times and Time Zones

All times are in EDT time to prevent confusion due to time zone crossing. See the FIV521 flight status page for this flight to view local times or setup timezone preferences in your user account.

Time Position Orientation Groundspeed Altitude Reporting Facility
EDT Latitude Longitude Course Direction KTS MPH feet Rate Location/Type
Tue 06:31:04 PM 39.8667 -75.2667 208° Southwest 127 146 800  Level Philadelphia TRACON
Tue 06:31:20 PM 39.8583 -75.2725 208° Southwest 136 157 1,500 3,000 Climbing FAA TRACON SMA TRACON (SMA)
Tue 06:31:40 PM 39.8481 -75.2842 221° Southwest 160 184 2,600 3,450 Climbing FAA TRACON SMA TRACON (SMA)
Tue 06:32:00 PM 39.8344 -75.2983 219° Southwest 172 198 3,800 2,700 Climbing FAA TRACON SMA TRACON (SMA)
Tue 06:32:20 PM 39.8203 -75.3003 186° South 197 227 4,400 1,800 Climbing FAA TRACON SMA TRACON (SMA)
Tue 06:32:40 PM 39.8042 -75.2817 138° Southeast 257 296 5,000 2,250 Climbing FAA TRACON SMA TRACON (SMA)
Tue 06:33:00 PM 39.8000 -75.2442 98° East 291 335 5,900 2,700 Climbing FAA TRACON SMA TRACON (SMA)
Tue 06:33:20 PM 39.8008 -75.2117 88° East 295 339 6,800 2,850 Climbing FAA TRACON SMA TRACON (SMA)
Tue 06:33:40 PM 39.8003 -75.1714 91° East 302 348 7,800 2,850 Climbing FAA TRACON SMA TRACON (SMA)
Tue 06:34:00 PM 39.7994 -75.1350 92° East 311 358 8,700 2,550 Climbing FAA TRACON SMA TRACON (SMA)
Tue 06:34:20 PM 39.7986 -75.1003 92° East 324 373 9,500 2,700 Climbing FAA TRACON SMA TRACON (SMA)
Tue 06:34:40 PM 39.7983 -75.0522 90° East 332 382 10,500 2,100 Climbing FAA TRACON SMA TRACON (SMA)
Tue 06:35:00 PM 39.7981 -75.0153 91° East 333 383 10,900 1,200 Climbing FAA TRACON SMA TRACON (SMA)
Tue 06:35:20 PM 39.7975 -74.9753 91° East 349 402 11,300 1,200 Climbing FAA TRACON SMA TRACON (SMA)
Tue 06:35:40 PM 39.7964 -74.9228 92° East 374 430 11,700 900 Climbing FAA TRACON SMA TRACON (SMA)
Tue 06:36:00 PM 39.7967 -74.8828 89° East 379 436 11,900 300 Climbing FAA TRACON SMA TRACON (SMA)
Tue 06:36:20 PM 39.7956 -74.8375 92° East 383 441 11,900 150 Level FAA TRACON SMA TRACON (SMA)
Tue 06:36:40 PM 39.7981 -74.7825 87° East 400 460 12,000 750 Climbing FAA TRACON SMA TRACON (SMA)
Tue 06:37:00 PM 39.8133 -74.7456 62° Northeast 387 445 12,400 1,650 Climbing FAA TRACON SMA TRACON (SMA)
Tue 06:37:20 PM 39.8389 -74.7100 47° Northeast 376 433 13,100 2,100 Climbing FAA TRACON SMA TRACON (SMA)
Tue 06:37:40 PM 39.8628 -74.6803 44° Northeast 378 435 13,800 1,950 Climbing FAA TRACON SMA TRACON (SMA)
Tue 06:38:00 PM 39.8886 -74.6514 41° Northeast 376 433 14,400 900 Climbing FAA TRACON SMA TRACON (SMA)
Tue 06:38:20 PM 39.8886 -74.6514 37° Northeast 376 433 14,400 1,750 Level FAA TRACON SMA TRACON (SMA)
Tue 06:40:00 PM 40.0431 -74.4747 41° Northeast 365 420 17,900 2,051 Climbing New York Center
Tue 06:40:58 PM 40.1269 -74.3894 38° Northeast 373 429 19,800 1,678 Climbing New York Center
Tue 06:41:58 PM 40.2150 -74.3017 37° Northeast 378 435 21,200 1,350 Climbing New York Center
Tue 06:42:58 PM 40.2953 -74.1969 45° Northeast 390 449 22,500 893 Climbing New York Center
Tue 06:43:59 PM 40.3797 -74.0814 46° Northeast 404 465 23,000 248 Climbing New York Center
Tue 06:44:59 PM 40.4664 -73.9683 45° Northeast 430 495 23,000  Level New York Center
Tue 06:46:00 PM 40.5506 -73.8547 46° Northeast 435 501 23,000  Level New York Center
Tue 06:48:26 PM 40.7586 -73.5744 46° Northeast 440 506 23,000  Level Boston Center
Tue 06:49:26 PM 40.8242 -73.4878 45° Northeast 425 489 23,000  Level Boston Center
Tue 06:50:25 PM 40.9192 -73.3492 48° Northeast 425 489 23,000  Level Boston Center
Tue 06:51:37 PM 41.0075 -73.2267 46° Northeast 420 483 23,000  Level Boston Center
Tue 06:52:38 PM 41.0856 -73.1064 49° Northeast 420 483 23,000  Level Boston Center
Tue 06:53:38 PM 41.1550 -72.9722 55° Northeast 425 489 23,000  Level Boston Center
Tue 06:54:39 PM 41.2119 -72.8236 63° Northeast 435 501 23,000  Level Boston Center
Tue 06:55:38 PM 41.2706 -72.6719 63° Northeast 445 512 23,000  Level Boston Center
Tue 06:56:38 PM 41.3292 -72.5231 62° Northeast 450 518 23,000  Level Boston Center
Tue 06:57:39 PM 41.3856 -72.3708 64° Northeast 450 518 23,000  Level Boston Center
Tue 06:58:39 PM 41.4436 -72.2269 62° Northeast 443 510 23,000 -102 Level Boston Center
Tue 06:59:37 PM 41.4994 -72.0825 63° Northeast 437 503 22,800 -1,068 Descending Boston Center
Tue 07:00:37 PM 41.5553 -71.9325 64° Northeast 437 503 20,900 -2,033 Descending Boston Center
Tue 07:01:38 PM 41.6147 -71.7736 63° Northeast 430 495 18,700 -1,714 Descending Boston Center
Tue 07:02:50 PM 41.6639 -71.6342 65° Northeast 419 482 17,100 -1,591 Descending Boston Center
Tue 07:03:50 PM 41.7292 -71.4664 62° Northeast 419 482 15,200 -1,820 Descending Boston Center
Tue 07:04:52 PM 41.7800 -71.3264 64° Northeast 413 475 13,400 -1,664 Descending Boston Center
Tue 07:05:49 PM 41.8289 -71.1975 63° Northeast 403 464 11,900 -1,590 Descending Boston Center
Tue 07:06:49 PM 41.8753 -71.0767 63° Northeast 372 428 10,300 -1,425 Descending Boston Center
Tue 07:07:09 PM 41.9000 -71.0333 53° Northeast 349 402 10,000 -1,350 Descending KA90
Tue 07:08:09 PM 41.9333 -70.9333 66° East 332 382 8,500 -1,176 Descending KA90
Tue 07:08:51 PM 41.9664 -70.8597 59° Northeast 338 389 8,000 -294 Descending Boston Center
Tue 07:09:51 PM 42.0150 -70.7636 56° Northeast 327 376 8,000  Level Boston Center
Tue 07:10:52 PM 42.0617 -70.6894 50° Northeast 322 371 8,000 -202 Level Boston Center
Tue 07:11:50 PM 42.1397 -70.6089 37° Northeast 295 339 7,600 -723 Descending Boston Center
Tue 07:12:15 PM 42.1667 -70.6000 14° North 287 330 7,000 -1,694 Descending KA90
Tue 07:13:15 PM 42.2500 -70.6167 352° North 275 316 5,200 -1,608 Descending KA90
Tue 07:13:52 PM 42.2900 -70.6269 349° North 258 297 4,400 -766 Descending Boston Center
Tue 07:14:49 PM 42.3528 -70.6336 356° North 248 285 4,000 -203 Descending Boston Center
Tue 07:15:50 PM 42.4069 -70.6378 357° North 216 249 4,000 -50 Level Boston Center
Tue 07:16:50 PM 42.4181 -70.6822 289° West 158 182 3,900 -353 Descending Boston Center
Tue 07:17:49 PM 42.4064 -70.7417 255° West 124 143 3,300 -632 Descending Boston Center
Tue 07:20:57 PM 42.3833 -70.9000 259° West 141 162 1,300 -591 Descending KA90
Tue 07:22:03 PM 42.3667 -70.9333 236° Southwest 117 135 800 -455 Descending KA90

Login

Don't have an account? Register now (free) for customized features, flight alerts, and more!